Главная страница
METAR-TAF:

METAR-TAF

Аэропорты :

Пуант-а-Питр, Гваделупа

широта: 16-16N, долгота: 061-31W, высота над уровнем моря: 11 м

Текущие метеонаблюдения

Эта сводка был подготовлена 25 минут назад, в 09:00 UTC
Ветер 3 Узел от восточно-юго-восточный
Температура 23°C
Влажность 89%
Давление 1014 hPa
Видимость 10 км и более
Нет облачности ниже 1500 м, и нет кучево-дождевой облачности

METAR: TFFR 160900Z AUTO 11003KT CAVOK 23/21 Q1014 TEMPO 3000 SHRA FEW010CB SCT018TCU

Время: 05:25 (09:25 UTC)

Прогноз

Эта сводка был подготовлена 4 часа и 25 минут назад, в 05:00 UTC
Прогноз действительный с 16-го 06 UTC до 17-го 06 UTC
Ветер 7 Узел от восточный
Видимость 10 км и более
Отдельные облака на высоте 2300 фута
временами
С 16-го 06 UTC до 16-го 24 UTC
Видимость: 3000 м
небольшая облачность на высоте 1000 фута, Кучево-дождевые.
Отдельные облака на высоте 1800 фута, мощно-кучевые.
ливневые дожди

TAF: TFFR 160500Z 1606/1706 09007KT 9999 SCT023 TEMPO 1606/1624 3000 SHRA FEW010CB SCT018TCU

Метеонаблюдения и прогнозы для более 4000 аэропортов (сводки METAR и TAF).

Имеющиеся станции представлены на карте желтыми и красными точками.

Чтобы увидеть название станции, наведите на нее мышь.

Затем щелкните, чтобы увидеть метеонаблюдения и метеопрогнозы.

Управление картой: чтобы увеличить масштаб, щелкните зеленые кнопки с черным крестиком; чтобы уменьшить масштаб, щелкните зеленую кнопку с тире; для просмотра соседних карт щелкайте зеленые стрелки.


METAR-TAF: